Time;durP1;ratioP1;P1;durP2;ratioP2;P2;SDS_P1;SDS_P2;PMS_P1;PMS_P2;Temp;Humidity;BMP_temperature;BMP_pressure;BME280_temperature;BME280_humidity;BME280_pressure;Samples;Min_cycle;Max_cycle;Signal;HPM_P1;HPM_P2
2023/01/26 00:00:45;;;;;;;9.13;7.07;;;11.90;65.50;;;;;;5071554;28;20499;-74
2023/01/26 00:03:12;;;;;;;11.05;6.97;;;;;;;;;;5070487;28;20048;-74
2023/01/26 00:05:39;;;;;;;11.50;7.20;;;11.90;56.60;;;;;;5071408;28;20058;-74
2023/01/26 00:08:05;;;;;;;10.48;7.03;;;12.00;57.20;;;;;;5071399;28;20067;-74
2023/01/26 00:10:35;;;;;;;9.63;6.80;;;11.80;64.20;;;;;;5052281;28;20133;-74
2023/01/26 00:13:02;;;;;;;10.73;6.93;;;12.30;57.40;;;;;;5051165;28;20055;-74
2023/01/26 00:15:28;;;;;;;9.95;7.20;;;10.90;64.10;;;;;;5051229;28;20053;-74
2023/01/26 00:17:55;;;;;;;10.05;6.95;;;;;;;;;;5051165;28;20056;-74
2023/01/26 00:20:22;;;;;;;9.65;6.82;;;11.80;64.20;;;;;;5067305;28;20048;-74
2023/01/26 00:22:49;;;;;;;10.52;6.88;;;;;;;;;;5071158;28;20135;-74
2023/01/26 00:25:16;;;;;;;9.27;6.47;;;11.90;65.10;;;;;;5071073;28;20497;-74
2023/01/26 00:27:44;;;;;;;9.77;6.65;;;11.80;56.80;;;;;;5070765;28;20139;-74
2023/01/26 00:30:11;;;;;;;9.65;7.10;;;11.80;57.30;;;;;;5070366;28;20055;-74
2023/01/26 00:32:37;;;;;;;9.43;6.68;;;11.80;57.30;;;;;;5070606;28;20059;-74
2023/01/26 00:35:05;;;;;;;10.40;7.43;;;11.80;57.20;;;;;;5070882;28;20048;-74
2023/01/26 00:37:32;;;;;;;9.23;6.97;;;;;;;;;;5070471;28;20128;-74
2023/01/26 00:39:58;;;;;;;10.30;6.43;;;11.70;56.80;;;;;;5069806;28;20527;-74
2023/01/26 00:42:25;;;;;;;9.50;6.72;;;12.30;57.60;;;;;;5070559;28;20074;-74
2023/01/26 00:44:53;;;;;;;10.10;7.05;;;11.70;57.30;;;;;;5071102;28;20605;-74
2023/01/26 00:47:20;;;;;;;9.55;6.90;;;11.70;57.30;;;;;;5070735;28;20412;-74
2023/01/26 00:49:47;;;;;;;9.77;6.82;;;11.70;60.20;;;;;;5059171;28;20136;-74
2023/01/26 00:52:14;;;;;;;9.85;6.93;;;11.80;65.30;;;;;;5050529;28;20132;-74
2023/01/26 00:54:41;;;;;;;9.55;7.13;;;;;;;;;;5050401;28;20128;-74
2023/01/26 00:57:08;;;;;;;9.80;6.72;;;;;;;;;;5050620;28;20140;-74
2023/01/26 00:59:34;;;;;;;9.20;6.57;;;11.70;56.90;;;;;;5060425;28;20127;-74
2023/01/26 01:02:02;;;;;;;9.30;6.85;;;11.80;57.50;;;;;;5070664;28;20566;-74
2023/01/26 01:04:29;;;;;;;9.95;7.18;;;11.90;57.60;;;;;;5070478;28;20050;-74
2023/01/26 01:06:56;;;;;;;10.48;7.50;;;11.60;64.80;;;;;;5071540;28;20469;-74
2023/01/26 01:09:23;;;;;;;10.07;7.32;;;12.30;57.80;;;;;;5062520;28;20059;-74
2023/01/26 01:11:49;;;;;;;11.13;7.57;;;11.60;57.40;;;;;;5051375;28;20057;-73
2023/01/26 01:14:16;;;;;;;9.68;6.75;;;12.50;65.50;;;;;;5050134;28;20049;-74
2023/01/26 01:16:44;;;;;;;9.65;6.95;;;11.90;57.60;;;;;;5050144;28;20135;-74
2023/01/26 01:19:13;;;;;;;11.02;7.13;;;11.60;65.20;;;;;;5050770;28;20087;-74
2023/01/26 01:21:40;;;;;;;9.75;6.82;;;;;;;;;;5069467;28;20052;-74
2023/01/26 01:24:08;;;;;;;9.45;7.05;;;11.60;57.00;;;;;;5070189;28;20132;-74
2023/01/26 01:26:35;;;;;;;10.93;7.80;;;;;;;;;;5070506;28;20438;-74
2023/01/26 01:29:01;;;;;;;10.02;7.35;;;11.60;57.00;;;;;;5069709;28;20127;-74
2023/01/26 01:31:29;;;;;;;10.93;7.22;;;11.90;57.70;;;;;;5070422;28;20139;-74
2023/01/26 01:33:56;;;;;;;9.85;7.40;;;;;;;;;;5069815;28;20086;-74
2023/01/26 01:36:24;;;;;;;9.57;6.65;;;11.50;56.90;;;;;;5070023;28;20128;-74
2023/01/26 01:38:50;;;;;;;10.13;6.90;;;11.50;66.10;;;;;;5069707;28;20425;-74
2023/01/26 01:41:19;;;;;;;10.20;7.45;;;11.50;56.90;;;;;;5070293;28;20141;-74
2023/01/26 01:43:45;;;;;;;10.90;7.47;;;11.40;65.70;;;;;;5069938;28;20135;-74
2023/01/26 01:46:15;;;;;;;9.70;6.82;;;11.50;56.90;;;;;;5071227;28;20506;-74
2023/01/26 01:48:47;;;;;;;10.60;7.97;;;11.50;57.40;;;;;;5068936;28;20641;-74
2023/01/26 01:51:15;;;;;;;9.50;7.07;;;11.40;65.90;;;;;;5050075;28;20049;-74
2023/01/26 01:53:44;;;;;;;10.70;7.22;;;11.50;57.40;;;;;;5071321;28;20052;-74
2023/01/26 01:56:13;;;;;;;9.45;6.68;;;12.00;57.70;;;;;;5073866;28;20049;-74
2023/01/26 01:58:41;;;;;;;9.40;6.78;;;11.60;65.40;;;;;;5073423;28;20056;-74
2023/01/26 02:01:08;;;;;;;10.38;7.50;;;11.50;65.20;;;;;;5073985;28;20135;-74
2023/01/26 02:03:34;;;;;;;9.35;6.68;;;12.00;57.80;;;;;;5073362;28;20062;-74
2023/01/26 02:06:03;;;;;;;8.48;6.50;;;12.20;65.20;;;;;;5073728;28;20128;-73
2023/01/26 02:08:31;;;;;;;8.77;6.68;;;11.40;57.40;;;;;;5073356;28;20056;-73
2023/01/26 02:11:02;;;;;;;9.38;6.65;;;11.50;57.50;;;;;;5053859;28;20049;-74
2023/01/26 02:13:30;;;;;;;10.77;7.57;;;;;;;;;;5053583;28;20085;-73
2023/01/26 02:15:57;;;;;;;8.73;6.63;;;11.60;66.30;;;;;;5053461;28;20071;-74
2023/01/26 02:18:24;;;;;;;9.70;6.60;;;;;;;;;;5053698;28;20140;-74
2023/01/26 02:20:52;;;;;;;9.65;6.60;;;11.50;64.80;;;;;;5071553;28;20056;-73
2023/01/26 02:23:31;;;;;;;9.00;6.55;;;11.40;57.40;;;;;;5073265;28;20057;-73
2023/01/26 02:26:07;;;;;;;9.30;6.35;;;11.40;65.00;;;;;;5073213;28;20110;-73
2023/01/26 02:28:34;;;;;;;8.38;6.32;;;11.40;57.30;;;;;;5073707;28;20056;-73
2023/01/26 02:31:01;;;;;;;8.52;6.18;;;;;;;;;;5072491;28;20057;-73
2023/01/26 02:33:28;;;;;;;9.13;6.38;;;;;;;;;;5072823;28;20087;-73
2023/01/26 02:35:55;;;;;;;8.73;6.35;;;11.40;65.10;;;;;;5072496;28;20052;-73
2023/01/26 02:38:22;;;;;;;9.25;6.55;;;11.40;57.40;;;;;;5073036;28;20413;-73
2023/01/26 02:40:51;;;;;;;9.20;6.53;;;11.20;65.20;;;;;;5054666;28;20707;-73
2023/01/26 02:43:18;;;;;;;8.48;6.18;;;11.40;57.50;;;;;;5052960;28;20088;-74
2023/01/26 02:45:44;;;;;;;7.97;5.85;;;11.70;65.10;;;;;;5053244;28;20466;-74
2023/01/26 02:48:11;;;;;;;8.52;6.50;;;;;;;;;;5052949;28;20053;-74
2023/01/26 02:50:37;;;;;;;8.35;5.43;;;12.30;65.70;;;;;;5053412;28;20053;-73
2023/01/26 02:53:04;;;;;;;8.55;5.97;;;;;;;;;;5052675;28;20141;-73
2023/01/26 02:55:30;;;;;;;9.07;6.25;;;;;;;;;;5052560;28;20529;-73
2023/01/26 02:57:58;;;;;;;8.63;6.30;;;11.20;65.20;;;;;;5052939;28;20052;-73
2023/01/26 03:00:27;;;;;;;9.10;6.20;;;11.40;64.90;;;;;;5067824;28;20075;-74
2023/01/26 03:02:56;;;;;;;7.80;5.88;;;11.50;65.20;;;;;;5071984;28;20488;-74
2023/01/26 03:05:22;;;;;;;7.88;5.82;;;10.80;65.00;;;;;;5072477;28;20225;-73
2023/01/26 03:07:49;;;;;;;7.22;5.45;;;11.60;65.20;;;;;;5073768;28;20048;-73
2023/01/26 03:10:17;;;;;;;6.90;5.13;;;10.50;64.60;;;;;;5058540;28;20470;-73
2023/01/26 03:12:43;;;;;;;7.72;5.50;;;11.40;64.90;;;;;;5051884;28;20132;-73
2023/01/26 03:27:25;;;;;;;8.02;5.88;;;11.50;65.60;;;;;;5056265;28;20044;-74
2023/01/26 03:29:25;;;;;;;7.03;5.32;;;;;;;;;;5071312;28;20123;-73
2023/01/26 03:31:52;;;;;;;6.57;5.10;;;11.60;56.80;;;;;;5072218;28;20053;-73
2023/01/26 03:34:20;;;;;;;6.05;4.72;;;11.60;65.50;;;;;;5071607;28;20055;-73
2023/01/26 03:36:47;;;;;;;6.93;5.03;;;11.80;65.00;;;;;;5071275;28;20055;-74
2023/01/26 03:41:06;;;;;;;6.15;4.80;;;;;;;;;;5071135;28;20127;-73
2023/01/26 03:58:29;;;;;;;5.57;4.38;;;;;;;;;;5066346;28;20040;-73
2023/01/26 04:00:56;;;;;;;5.88;4.43;;;11.80;56.60;;;;;;5062001;28;20139;-73
2023/01/26 04:08:53;;;;;;;5.22;4.20;;;11.60;64.30;;;;;;5070718;28;20114;-73
2023/01/26 04:11:19;;;;;;;6.25;4.32;;;12.80;65.90;;;;;;5071546;28;20135;-73
2023/01/26 04:22:00;;;;;;;5.57;3.95;;;11.60;63.90;;;;;;5056403;28;20045;-73
2023/01/26 04:24:27;;;;;;;6.20;4.40;;;11.80;57.00;;;;;;5051107;28;20084;-75
2023/01/26 04:26:54;;;;;;;5.47;4.18;;;11.50;64.90;;;;;;5051263;28;20140;-75
2023/01/26 04:29:21;;;;;;;5.95;4.28;;;11.90;57.00;;;;;;5052563;28;20509;-75
2023/01/26 04:31:48;;;;;;;5.45;4.10;;;;;;;;;;5050811;28;20061;-75
2023/01/26 04:34:15;;;;;;;5.13;3.85;;;11.80;65.40;;;;;;5051049;28;20059;-75
2023/01/26 04:36:42;;;;;;;5.07;3.75;;;11.80;65.00;;;;;;5057556;28;20045;-75
2023/01/26 04:39:10;;;;;;;5.25;3.90;;;11.90;64.40;;;;;;5070214;28;20067;-75
2023/01/26 04:41:37;;;;;;;4.85;3.90;;;11.80;56.90;;;;;;5070727;28;20539;-75
2023/01/26 04:44:04;;;;;;;5.35;3.80;;;11.90;57.00;;;;;;5070459;28;20052;-75
2023/01/26 04:46:32;;;;;;;6.07;4.22;;;11.90;57.00;;;;;;5071011;28;20128;-75
2023/01/26 04:48:58;;;;;;;5.45;3.88;;;11.80;64.70;;;;;;5069676;28;20058;-75
2023/01/26 04:51:25;;;;;;;4.30;3.45;;;10.60;64.90;;;;;;5050557;28;20082;-75
2023/01/26 04:53:52;;;;;;;5.90;3.97;;;12.40;57.30;;;;;;5050506;28;20084;-75
2023/01/26 04:56:23;;;;;;;5.50;4.07;;;12.20;65.00;;;;;;5050322;28;20049;-75
2023/01/26 04:58:49;;;;;;;5.00;3.97;;;12.70;65.00;;;;;;5050642;28;20095;-75
2023/01/26 05:01:16;;;;;;;5.15;3.90;;;11.90;56.90;;;;;;5050883;28;20060;-75
2023/01/26 05:03:43;;;;;;;4.90;3.78;;;;;;;;;;5050510;28;20055;-75
2023/01/26 05:06:10;;;;;;;4.18;3.30;;;11.90;56.40;;;;;;5050539;28;20044;-75
2023/01/26 05:08:37;;;;;;;4.80;3.60;;;11.90;56.90;;;;;;5050612;28;20528;-75
2023/01/26 05:11:03;;;;;;;4.80;3.47;;;11.70;64.60;;;;;;5059590;28;20048;-75
2023/01/26 05:13:31;;;;;;;5.03;3.60;;;12.00;65.00;;;;;;5070521;28;20163;-75
2023/01/26 05:15:58;;;;;;;4.47;3.42;;;12.20;57.00;;;;;;5070396;28;20132;-75
2023/01/26 05:18:25;;;;;;;4.80;3.67;;;12.80;64.90;;;;;;5070490;28;20070;-75
2023/01/26 05:20:52;;;;;;;4.57;3.30;;;12.80;65.80;;;;;;5069911;28;20136;-75
2023/01/26 05:23:18;;;;;;;3.97;3.33;;;11.90;56.90;;;;;;5070004;28;20468;-75
2023/01/26 05:25:45;;;;;;;4.72;3.55;;;11.90;56.90;;;;;;5071105;28;20052;-75
2023/01/26 05:28:12;;;;;;;4.50;3.50;;;;;;;;;;5074449;28;20054;-75
2023/01/26 05:30:40;;;;;;;3.85;3.20;;;11.80;64.60;;;;;;5073715;28;20409;-75
2023/01/26 05:33:07;;;;;;;4.30;3.50;;;11.30;64.50;;;;;;5074204;28;20140;-75
2023/01/26 05:35:34;;;;;;;4.13;3.20;;;11.90;65.40;;;;;;5074172;28;20568;-75
2023/01/26 05:38:01;;;;;;;5.10;3.53;;;12.40;57.20;;;;;;5073962;28;20062;-75
2023/01/26 05:40:27;;;;;;;4.68;3.40;;;11.80;64.20;;;;;;5061755;28;20508;-75
2023/01/26 05:42:54;;;;;;;4.63;3.45;;;11.80;64.40;;;;;;5053996;28;20136;-75
2023/01/26 05:45:21;;;;;;;4.05;3.30;;;12.30;57.70;;;;;;5053986;28;20072;-75
2023/01/26 05:47:49;;;;;;;4.18;3.00;;;12.10;64.70;;;;;;5055108;28;20785;-77
2023/01/26 05:50:16;;;;;;;4.65;3.40;;;12.00;64.60;;;;;;5057836;28;20053;-77
2023/01/26 05:52:45;;;;;;;5.00;3.35;;;;;;;;;;5064582;28;20134;-77
2023/01/26 05:55:12;;;;;;;4.20;3.00;;;11.90;56.40;;;;;;5075776;28;20075;-77
2023/01/26 05:57:38;;;;;;;4.40;3.20;;;11.90;64.90;;;;;;5053922;28;20139;-77
2023/01/26 06:00:06;;;;;;;4.53;3.10;;;12.00;57.00;;;;;;5062550;28;20066;-77
2023/01/26 06:02:33;;;;;;;4.28;2.97;;;12.00;56.90;;;;;;5071869;28;20602;-77
2023/01/26 06:05:01;;;;;;;4.00;3.22;;;12.00;56.90;;;;;;5074027;28;20476;-77
2023/01/26 06:07:28;;;;;;;4.25;3.10;;;13.00;57.40;;;;;;5073669;28;20139;-77
2023/01/26 06:09:55;;;;;;;3.83;2.97;;;11.90;64.40;;;;;;5072938;28;20056;-77
2023/01/26 06:12:21;;;;;;;4.43;3.15;;;12.00;65.60;;;;;;5073298;28;20057;-77
2023/01/26 06:14:48;;;;;;;4.45;3.05;;;12.00;56.90;;;;;;5073674;28;20135;-77
2023/01/26 06:17:16;;;;;;;3.60;2.90;;;12.00;56.80;;;;;;5073462;28;20135;-77
2023/01/26 06:19:42;;;;;;;3.97;3.08;;;12.10;56.90;;;;;;5072833;28;20131;-78
2023/01/26 06:22:11;;;;;;;3.50;2.80;;;11.90;64.30;;;;;;5073471;28;20549;-78
2023/01/26 06:24:37;;;;;;;3.50;2.88;;;12.10;64.50;;;;;;5073503;28;20140;-78
2023/01/26 06:27:05;;;;;;;3.10;2.50;;;11.80;64.30;;;;;;5073609;28;20135;-77
2023/01/26 06:29:32;;;;;;;3.63;2.83;;;12.10;56.90;;;;;;5073123;28;20132;-77
2023/01/26 06:31:59;;;;;;;4.05;2.92;;;12.40;57.10;;;;;;5073424;28;20110;-80
2023/01/26 06:34:26;;;;;;;3.10;2.50;;;12.20;64.80;;;;;;5073508;28;20139;-76
2023/01/26 06:36:52;;;;;;;4.90;3.22;;;12.10;56.80;;;;;;5072125;28;20444;-76
2023/01/26 06:39:20;;;;;;;3.97;3.00;;;12.20;56.90;;;;;;5071691;28;20140;-76
2023/01/26 06:41:47;;;;;;;3.53;2.78;;;12.10;64.50;;;;;;5073107;28;20477;-76
2023/01/26 06:44:14;;;;;;;3.17;2.60;;;12.30;64.80;;;;;;5073079;28;20135;-76
2023/01/26 06:46:40;;;;;;;3.47;2.67;;;12.20;56.80;;;;;;5073080;28;20044;-76
2023/01/26 06:49:08;;;;;;;3.55;2.70;;;12.20;56.70;;;;;;5073007;28;20139;-76
2023/01/26 06:51:44;;;;;;;3.95;3.13;;;11.40;63.90;;;;;;5064744;28;20128;-76
2023/01/26 06:54:11;;;;;;;3.90;2.58;;;12.30;56.80;;;;;;5063829;28;20061;-76
2023/01/26 06:56:39;;;;;;;3.15;2.63;;;12.20;56.70;;;;;;5060941;28;20123;-76
2023/01/26 06:59:08;;;;;;;3.60;2.65;;;12.20;64.20;;;;;;5064245;28;20084;-75
2023/01/26 07:01:37;;;;;;;3.88;3.00;;;12.30;57.40;;;;;;5069541;28;20044;-75
2023/01/26 07:04:03;;;;;;;4.00;3.33;;;12.40;56.80;;;;;;5072424;28;20058;-75
2023/01/26 07:06:30;;;;;;;3.40;2.60;;;12.70;57.00;;;;;;5072966;28;20055;-74
2023/01/26 07:08:57;;;;;;;3.72;2.90;;;12.20;65.00;;;;;;5072069;28;20405;-75
2023/01/26 07:11:24;;;;;;;5.57;3.17;;;12.20;56.70;;;;;;5071829;28;20056;-74
2023/01/26 07:13:52;;;;;;;4.85;2.90;;;12.20;64.10;;;;;;5072832;28;20048;-74
2023/01/26 07:16:19;;;;;;;3.95;2.92;;;12.20;56.70;;;;;;5072522;28;20048;-75
2023/01/26 07:18:45;;;;;;;4.65;3.25;;;12.30;56.60;;;;;;5072765;28;20062;-75
2023/01/26 07:21:13;;;;;;;6.30;2.95;;;12.30;56.50;;;;;;5071876;28;20062;-74
2023/01/26 07:23:40;;;;;;;4.70;3.10;;;12.30;56.50;;;;;;5072527;28;20136;-75
2023/01/26 07:26:06;;;;;;;5.82;2.75;;;12.30;56.50;;;;;;5072590;28;20052;-75
2023/01/26 07:28:34;;;;;;;3.67;2.88;;;12.30;56.60;;;;;;5072439;28;20059;-75
2023/01/26 07:31:02;;;;;;;3.92;2.90;;;12.20;56.50;;;;;;5058135;28;20053;-75
2023/01/26 07:33:29;;;;;;;4.07;2.85;;;12.30;56.60;;;;;;5052117;28;20401;-75
2023/01/26 07:35:56;;;;;;;3.58;2.55;;;12.10;64.80;;;;;;5052765;28;20059;-75
2023/01/26 07:38:23;;;;;;;3.88;2.90;;;12.20;56.60;;;;;;5071710;28;20052;-75
2023/01/26 07:40:50;;;;;;;5.85;3.00;;;11.20;64.10;;;;;;5062461;28;20047;-75
2023/01/26 07:43:16;;;;;;;3.60;2.50;;;12.20;56.50;;;;;;5063260;28;20439;-74
2023/01/26 07:45:45;;;;;;;3.60;2.63;;;12.20;56.60;;;;;;5063483;28;20074;-75
2023/01/26 07:48:13;;;;;;;3.92;2.92;;;12.20;56.60;;;;;;5063953;28;20060;-75
2023/01/26 07:50:40;;;;;;;5.63;2.70;;;;;;;;;;5059535;28;20057;-75
2023/01/26 07:53:08;;;;;;;3.20;2.67;;;12.10;56.00;;;;;;5058557;28;20049;-75
2023/01/26 07:55:34;;;;;;;5.63;2.90;;;12.10;65.20;;;;;;5058456;28;20378;-75
2023/01/26 07:58:01;;;;;;;4.40;2.38;;;13.10;57.10;;;;;;5065186;28;20057;-75
2023/01/26 08:00:28;;;;;;;4.40;2.80;;;12.00;63.60;;;;;;5058476;28;20078;-75
2023/01/26 08:02:55;;;;;;;3.80;2.70;;;12.10;65.10;;;;;;5068037;28;20131;-75
2023/01/26 08:05:23;;;;;;;3.80;2.53;;;12.10;56.10;;;;;;5056527;28;20458;-75
2023/01/26 08:07:50;;;;;;;4.25;2.60;;;;;;;;;;5071838;28;20052;-75
2023/01/26 08:10:17;;;;;;;3.75;2.80;;;12.10;64.30;;;;;;5070747;28;20067;-75
2023/01/26 08:12:43;;;;;;;3.67;2.80;;;12.10;65.60;;;;;;5071100;28;20058;-75
2023/01/26 08:15:11;;;;;;;3.85;2.50;;;11.80;64.40;;;;;;5071749;28;20409;-76
2023/01/26 08:17:38;;;;;;;3.95;2.67;;;12.00;56.70;;;;;;5054177;28;20045;-75
2023/01/26 08:20:05;;;;;;;3.65;2.63;;;12.20;56.80;;;;;;5057076;28;20063;-75
2023/01/26 08:22:33;;;;;;;4.70;2.65;;;12.00;56.70;;;;;;5060452;28;20135;-75
2023/01/26 08:25:00;;;;;;;4.90;3.25;;;12.70;57.20;;;;;;5067942;28;20140;-75
2023/01/26 08:27:27;;;;;;;4.80;2.63;;;12.50;65.10;;;;;;5060053;28;20064;-75
2023/01/26 08:29:53;;;;;;;5.78;2.60;;;12.60;65.80;;;;;;5057024;28;20212;-75
2023/01/26 08:32:20;;;;;;;3.63;2.80;;;12.30;57.00;;;;;;5059005;28;20054;-76
2023/01/26 08:34:47;;;;;;;4.60;2.88;;;11.80;64.80;;;;;;5071368;28;20489;-76
2023/01/26 08:37:13;;;;;;;4.53;2.72;;;11.70;64.00;;;;;;5070170;28;20052;-76
2023/01/26 08:39:41;;;;;;;5.45;2.88;;;11.90;56.90;;;;;;5052316;28;20055;-76
2023/01/26 08:42:08;;;;;;;4.38;2.90;;;12.00;56.90;;;;;;5050996;28;20071;-76
2023/01/26 08:44:35;;;;;;;5.65;2.70;;;12.00;57.00;;;;;;5050830;28;20052;-77
2023/01/26 08:47:01;;;;;;;5.88;2.70;;;11.30;64.90;;;;;;5063343;28;20049;-77
2023/01/26 08:49:28;;;;;;;7.65;3.15;;;12.00;57.10;;;;;;5062812;28;20052;-74
2023/01/26 08:51:55;;;;;;;4.90;3.00;;;12.00;57.10;;;;;;5051258;28;20504;-74
2023/01/26 08:54:22;;;;;;;4.93;3.03;;;12.10;65.10;;;;;;5050545;28;20132;-75
2023/01/26 08:56:50;;;;;;;9.90;3.60;;;12.00;57.20;;;;;;5066162;28;20072;-76
2023/01/26 08:59:16;;;;;;;11.23;3.72;;;12.10;57.20;;;;;;5062894;28;20059;-75
2023/01/26 09:01:43;;;;;;;10.50;4.15;;;12.10;57.30;;;;;;5049122;28;20052;-75
2023/01/26 09:04:10;;;;;;;12.55;3.70;;;12.30;65.30;;;;;;5050480;28;20048;-75
2023/01/26 09:06:36;;;;;;;10.00;4.20;;;12.20;57.30;;;;;;5050875;28;20674;-75
2023/01/26 09:09:03;;;;;;;10.68;4.68;;;12.10;57.20;;;;;;5050752;28;20048;-75
2023/01/26 09:11:32;;;;;;;10.98;4.00;;;12.10;57.20;;;;;;5069900;28;22412;-75
2023/01/26 09:14:00;;;;;;;15.43;4.10;;;12.10;65.20;;;;;;5070103;28;20048;-75
2023/01/26 09:16:26;;;;;;;9.88;3.92;;;12.10;65.50;;;;;;5070461;28;20044;-75
2023/01/26 09:18:53;;;;;;;9.98;3.83;;;12.20;57.30;;;;;;5070752;28;20068;-75
2023/01/26 09:21:22;;;;;;;8.82;3.80;;;12.20;57.20;;;;;;5087232;28;20075;-75
2023/01/26 09:23:49;;;;;;;11.02;4.15;;;12.10;57.10;;;;;;5090622;28;20382;-75
2023/01/26 09:26:16;;;;;;;8.48;3.80;;;12.10;57.10;;;;;;5089956;28;20044;-75
2023/01/26 09:28:43;;;;;;;9.15;4.03;;;12.10;57.10;;;;;;5091913;28;20082;-75
2023/01/26 09:31:11;;;;;;;7.65;3.47;;;12.40;57.30;;;;;;5090643;28;20555;-75
2023/01/26 09:33:37;;;;;;;10.20;3.65;;;12.10;57.10;;;;;;5090427;28;20098;-75
2023/01/26 09:36:05;;;;;;;7.82;3.25;;;12.10;57.10;;;;;;5089221;28;20545;-75
2023/01/26 09:38:32;;;;;;;9.93;3.72;;;12.00;57.10;;;;;;5090571;28;20565;-75
2023/01/26 09:41:02;;;;;;;8.25;3.28;;;12.00;57.10;;;;;;5090329;28;20052;-75
2023/01/26 09:43:33;;;;;;;10.20;3.60;;;12.00;57.10;;;;;;5089927;28;20040;-75
2023/01/26 09:46:03;;;;;;;7.28;3.58;;;12.70;57.50;;;;;;5090698;28;20381;-75
2023/01/26 09:48:36;;;;;;;7.85;3.45;;;11.90;65.70;;;;;;5090832;28;20052;-75
2023/01/26 09:51:05;;;;;;;9.75;3.50;;;12.80;57.60;;;;;;5090638;28;20104;-75
2023/01/26 09:53:37;;;;;;;8.65;3.10;;;12.80;65.90;;;;;;5083285;28;20050;-75
2023/01/26 09:56:04;;;;;;;9.18;3.20;;;11.50;65.50;;;;;;5074244;28;20131;-75
2023/01/26 09:58:33;;;;;;;6.70;3.30;;;12.00;57.20;;;;;;5090295;28;20052;-75
2023/01/26 10:01:01;;;;;;;7.50;3.45;;;12.20;65.40;;;;;;5090348;28;20048;-75
2023/01/26 10:03:30;;;;;;;10.30;3.25;;;12.20;57.30;;;;;;5089602;28;20055;-75
2023/01/26 10:06:00;;;;;;;9.80;3.72;;;12.10;57.20;;;;;;5090398;28;20158;-75
2023/01/26 10:08:27;;;;;;;10.45;2.80;;;12.30;57.30;;;;;;5090324;28;20079;-75
2023/01/26 10:10:56;;;;;;;6.30;3.10;;;12.30;65.20;;;;;;5090455;28;20056;-75
2023/01/26 10:13:22;;;;;;;6.65;3.10;;;12.60;57.50;;;;;;5091141;28;20052;-75
2023/01/26 10:15:51;;;;;;;8.65;3.45;;;12.10;57.20;;;;;;5094234;28;20378;-75
2023/01/26 10:18:20;;;;;;;8.25;3.08;;;12.10;57.10;;;;;;5093852;28;20039;-75
2023/01/26 10:20:49;;;;;;;8.40;2.75;;;12.20;65.30;;;;;;5093752;28;20052;-75
2023/01/26 10:23:19;;;;;;;7.18;2.75;;;12.30;57.20;;;;;;5093236;28;20056;-75
2023/01/26 10:25:46;;;;;;;7.70;2.85;;;12.20;57.10;;;;;;5093641;28;20067;-75
2023/01/26 10:28:14;;;;;;;8.52;3.25;;;12.20;57.10;;;;;;5093737;28;20047;-75
2023/01/26 10:30:41;;;;;;;8.60;2.92;;;13.00;64.70;;;;;;5093630;28;20058;-75
2023/01/26 10:33:13;;;;;;;6.57;3.03;;;12.20;57.00;;;;;;5092830;28;20126;-75
2023/01/26 10:35:39;;;;;;;6.32;2.88;;;12.30;57.00;;;;;;5073360;28;20135;-75
2023/01/26 10:38:42;;;;;;;7.97;2.97;;;12.30;57.00;;;;;;5092184;28;20039;-75
2023/01/26 10:41:25;;;;;;;5.53;2.88;;;12.20;64.80;;;;;;5078451;28;20048;-75
2023/01/26 10:43:53;;;;;;;5.57;2.60;;;12.30;57.00;;;;;;5092711;28;20052;-75
2023/01/26 10:46:24;;;;;;;7.25;2.67;;;12.80;57.30;;;;;;5093777;28;20047;-75
2023/01/26 10:48:51;;;;;;;5.35;2.80;;;12.30;56.90;;;;;;5093356;28;20051;-75
2023/01/26 10:51:22;;;;;;;8.80;3.13;;;12.40;56.90;;;;;;5093318;28;20420;-75
2023/01/26 10:53:50;;;;;;;6.55;2.60;;;12.50;64.90;;;;;;5092323;28;20074;-75
2023/01/26 10:56:18;;;;;;;6.78;2.80;;;12.50;64.50;;;;;;5089822;28;20055;-75
2023/01/26 10:58:47;;;;;;;6.65;2.50;;;12.40;56.90;;;;;;5072639;28;20466;-75
2023/01/26 11:01:15;;;;;;;6.45;2.30;;;12.40;56.90;;;;;;5073165;28;20091;-75
2023/01/26 11:03:42;;;;;;;5.35;2.40;;;13.10;65.10;;;;;;5079751;28;20113;-75
2023/01/26 11:06:13;;;;;;;7.80;2.88;;;12.60;56.90;;;;;;5094071;28;20127;-75
2023/01/26 11:08:40;;;;;;;6.13;2.33;;;12.60;65.20;;;;;;5092971;28;20054;-75
2023/01/26 11:11:23;;;;;;;4.95;2.47;;;12.50;56.80;;;;;;5094008;28;20054;-75
2023/01/26 11:14:00;;;;;;;5.45;2.63;;;12.50;64.70;;;;;;5092383;28;20503;-75
2023/01/26 11:16:27;;;;;;;7.07;2.60;;;12.50;56.70;;;;;;5109628;28;20052;-75
2023/01/26 11:18:55;;;;;;;7.18;2.40;;;12.60;56.80;;;;;;5092634;28;20518;-75
2023/01/26 11:21:23;;;;;;;8.30;2.72;;;12.70;64.20;;;;;;5092796;28;20458;-75
2023/01/26 11:23:53;;;;;;;4.50;2.38;;;12.80;64.80;;;;;;5091580;28;20127;-75
2023/01/26 11:26:46;;;;;;;4.30;2.20;;;12.70;56.70;;;;;;5092355;28;20408;-75
2023/01/26 11:29:27;;;;;;;6.28;2.30;;;12.70;56.60;;;;;;5092581;28;20143;-75
2023/01/26 11:31:56;;;;;;;5.60;2.40;;;12.70;56.60;;;;;;5092548;28;20048;-75
2023/01/26 11:34:28;;;;;;;4.50;2.30;;;12.70;56.60;;;;;;5091909;28;20051;-75
2023/01/26 11:36:59;;;;;;;5.25;2.20;;;12.70;64.40;;;;;;5091982;28;20055;-75
2023/01/26 11:39:28;;;;;;;7.15;2.20;;;12.70;56.50;;;;;;5092469;28;20052;-75
2023/01/26 11:42:14;;;;;;;5.97;2.38;;;12.60;64.50;;;;;;5092456;28;20134;-75
2023/01/26 11:44:49;;;;;;;8.35;2.20;;;12.80;56.50;;;;;;5091884;28;20067;-75
2023/01/26 11:47:22;;;;;;;;;;;12.80;56.50;;;;;;5093025;28;20485;-75
2023/01/26 11:49:57;;;;;;;4.90;2.10;;;13.30;64.60;;;;;;5092244;28;19922;-75
2023/01/26 11:52:26;;;;;;;;;;;12.70;56.60;;;;;;5092397;28;20051;-75
2023/01/26 11:55:02;;;;;;;6.00;2.65;;;12.70;56.60;;;;;;5091366;28;19920;-75
2023/01/26 11:57:32;;;;;;;8.20;2.60;;;12.70;57.20;;;;;;5092198;28;20135;-75
2023/01/26 12:00:00;;;;;;;7.22;3.50;;;12.70;56.50;;;;;;5092026;28;20084;-75
2023/01/26 12:02:29;;;;;;;7.20;3.83;;;12.80;56.60;;;;;;5091649;28;20063;-75
2023/01/26 12:04:57;;;;;;;5.68;3.42;;;12.90;64.10;;;;;;5091320;28;20404;-75
2023/01/26 12:07:27;;;;;;;7.28;3.65;;;12.80;56.60;;;;;;5092164;28;20087;-75
2023/01/26 12:09:53;;;;;;;7.35;3.78;;;12.70;64.10;;;;;;5091705;28;20060;-75
2023/01/26 12:12:23;;;;;;;7.15;3.50;;;13.80;57.20;;;;;;5091555;28;20143;-75
2023/01/26 12:14:53;;;;;;;4.93;3.30;;;12.70;56.50;;;;;;5090446;28;20058;-75
2023/01/26 12:17:31;;;;;;;7.25;3.47;;;12.50;64.40;;;;;;5091650;28;20047;-75
2023/01/26 12:20:03;;;;;;;5.90;3.03;;;12.70;56.50;;;;;;5091680;28;20062;-75
2023/01/26 12:22:32;;;;;;;7.03;3.65;;;12.70;64.50;;;;;;5091250;28;20055;-75
2023/01/26 12:25:02;;;;;;;5.72;3.47;;;12.70;56.60;;;;;;5090975;28;20094;-75
2023/01/26 12:27:31;;;;;;;5.80;3.25;;;12.80;56.60;;;;;;5091564;28;20048;-75
2023/01/26 12:30:05;;;;;;;6.93;3.55;;;12.80;56.60;;;;;;5091759;28;20054;-75
2023/01/26 12:32:32;;;;;;;6.57;3.47;;;12.80;56.60;;;;;;5091115;28;20455;-75
2023/01/26 12:34:59;;;;;;;7.00;3.50;;;12.80;56.60;;;;;;5090780;28;20055;-75
2023/01/26 12:37:37;;;;;;;8.43;3.40;;;12.80;56.60;;;;;;5090673;28;20047;-75
2023/01/26 12:40:08;;;;;;;6.95;3.72;;;12.70;56.50;;;;;;5072114;28;20135;-75
2023/01/26 12:42:42;;;;;;;6.60;3.42;;;12.80;56.60;;;;;;5091341;28;20075;-75
2023/01/26 12:45:12;;;;;;;6.75;3.40;;;12.80;56.60;;;;;;5090520;28;20052;-75
2023/01/26 12:47:40;;;;;;;8.38;3.58;;;13.40;57.00;;;;;;5091200;28;20131;-75
2023/01/26 12:50:09;;;;;;;5.68;3.13;;;12.70;56.60;;;;;;5091276;28;20048;-75
2023/01/26 12:52:40;;;;;;;6.78;3.20;;;12.70;56.60;;;;;;5090931;28;20147;-75
2023/01/26 12:55:12;;;;;;;5.70;3.00;;;12.70;56.60;;;;;;5074337;28;20416;-75
2023/01/26 12:57:41;;;;;;;4.90;3.20;;;12.70;56.60;;;;;;5070971;28;20048;-75
2023/01/26 13:00:18;;;;;;;6.07;3.30;;;12.60;64.60;;;;;;5070620;28;20052;-75
2023/01/26 13:02:46;;;;;;;4.82;3.22;;;12.70;64.10;;;;;;5070464;28;20066;-75
2023/01/26 13:05:28;;;;;;;5.03;2.80;;;12.70;56.60;;;;;;5087662;28;20153;-75
2023/01/26 13:07:54;;;;;;;5.93;3.30;;;12.80;56.60;;;;;;5089942;28;20048;-75
2023/01/26 13:10:49;;;;;;;5.57;3.40;;;12.70;56.60;;;;;;5072713;28;20056;-75
2023/01/26 13:13:26;;;;;;;7.40;3.35;;;12.80;56.60;;;;;;5070672;28;20054;-75
2023/01/26 13:16:27;;;;;;;5.18;2.85;;;12.70;64.00;;;;;;5090906;28;20048;-75
2023/01/26 13:18:55;;;;;;;5.72;2.92;;;12.70;64.10;;;;;;5090909;28;20055;-75
2023/01/26 13:21:26;;;;;;;6.18;3.00;;;12.70;56.70;;;;;;5090971;28;20569;-75
2023/01/26 13:23:53;;;;;;;5.63;2.90;;;12.80;56.70;;;;;;5089622;28;20051;-75
2023/01/26 13:26:39;;;;;;;4.97;3.17;;;12.70;56.60;;;;;;5091036;28;20135;-75
2023/01/26 13:29:34;;;;;;;6.00;2.90;;;12.80;56.70;;;;;;5080270;28;20566;-75
2023/01/26 13:32:53;;;;;;;5.40;3.00;;;12.70;65.10;;;;;;5090408;28;20075;-75
2023/01/26 13:35:22;;;;;;;5.88;3.05;;;12.70;56.60;;;;;;5090571;28;20138;-75
2023/01/26 13:37:52;;;;;;;6.45;2.88;;;12.70;56.70;;;;;;5090220;28;20054;-75
2023/01/26 13:40:20;;;;;;;4.55;2.65;;;12.70;56.70;;;;;;5090646;28;20056;-75
2023/01/26 13:42:51;;;;;;;4.82;2.65;;;12.70;56.70;;;;;;5090655;28;20139;-75
2023/01/26 13:45:22;;;;;;;5.78;2.90;;;12.70;64.50;;;;;;5089254;28;20048;-75